»·PEaware :: N510CM KAVX-KSAN

N510CM :: KAVX-KSAN

FLIGHT INFORMATION

Flight Status: Arrived
Operator: Privately registered:
United States
More flights under this callsign
Pilot: Harley D. (27236)
Aircraft: CESSNA 510 CITATION MUSTANG
(C510)
More flights by this aircraft type
Origin: KAVX Catalina
United States
Destination: KSAN San Diego Intl-Lindbergh
United States
More flights between these airports :: More routes between these airports
Route: +LAX118 CARDI MZB320 MZB
File this flight plan on PilotEdge
Remarks: Request LOC RWY 27 @ KSAN
Altitude:
(Current/Filed)
3,000ft
Speed:
(Current/Filed)
250kts
Departed: 01-Jan-20 01:07 PM
Arrived: 01-Jan-20 01:46 PM
Distance/Time
Traveled:
74nm/0:39
Distance/Time
To Go:
Arrived

Flight Plot

Page will automatically refresh every two minutes.

Flight plan parsing failed; only flown route is shown


Map Options




Map Legend


Flown Route
Filed Route
Departure Airport
Arrival Airport
Navaid (VOR, NDB)
Fix

Horizontal Profiles

Position Reports

Time Latitude Longitude Heading Altitude Ground
Speed
01-Jan-20 12:41 33.403498 -118.415233 235 1548ft 0kts
01-Jan-20 12:42 33.403498 -118.415233 235 1548ft 0kts
01-Jan-20 12:43 33.403498 -118.415233 235 1548ft 0kts
01-Jan-20 12:44 33.403498 -118.415233 235 1548ft 0kts
01-Jan-20 12:45 33.403498 -118.415233 235 1548ft 0kts
01-Jan-20 12:46 33.403498 -118.415233 235 1548ft 0kts
01-Jan-20 12:47 33.403498 -118.415233 235 1548ft 0kts
01-Jan-20 12:48 33.403498 -118.415233 235 1548ft 0kts
01-Jan-20 12:49 33.403498 -118.415233 235 1548ft 0kts
01-Jan-20 12:50 33.403498 -118.415233 235 1548ft 0kts
01-Jan-20 12:51 33.403498 -118.415233 235 1548ft 0kts
01-Jan-20 12:52 33.403498 -118.415233 235 1548ft 0kts
01-Jan-20 12:53 33.403498 -118.415233 235 1548ft 0kts
01-Jan-20 12:54 33.403498 -118.415233 235 1548ft 0kts
01-Jan-20 12:58 33.403112 -118.415850 33 1552ft 0kts
01-Jan-20 12:59 33.403112 -118.415850 33 1552ft 0kts
01-Jan-20 13:00 33.403112 -118.415850 33 1552ft 0kts
01-Jan-20 13:01 33.403112 -118.415850 33 1552ft 0kts
01-Jan-20 13:02 33.403112 -118.415849 33 1552ft 0kts
01-Jan-20 13:03 33.403112 -118.415849 33 1552ft 0kts
01-Jan-20 13:04 33.403628 -118.416646 298 1556ft 13kts
01-Jan-20 13:05 33.402385 -118.419994 346 1553ft 7kts
01-Jan-20 13:06 33.416241 -118.395818 55 2124ft 156kts
01-Jan-20 13:07 33.446999 -118.350215 37 5382ft 183kts
01-Jan-20 13:08 33.460826 -118.290810 83 6591ft 202kts
01-Jan-20 13:09 33.465011 -118.218421 82 6262ft 222kts
01-Jan-20 13:10 33.469284 -118.147478 82 6258ft 202kts
01-Jan-20 13:11 33.472799 -118.084340 81 6263ft 183kts
01-Jan-20 13:12 33.476168 -118.023048 82 5834ft 204kts
01-Jan-20 13:13 33.483388 -117.948226 82 4549ft 222kts
01-Jan-20 13:14 33.493063 -117.888416 98 5196ft 163kts
01-Jan-20 13:15 33.483192 -117.832821 114 5923ft 175kts
01-Jan-20 13:16 33.440112 -117.805351 161 6754ft 179kts
01-Jan-20 13:17 33.389224 -117.789819 169 7841ft 225kts
01-Jan-20 13:18 33.351821 -117.725757 100 9290ft 282kts
01-Jan-20 13:19 33.306260 -117.642015 125 10846ft 313kts
01-Jan-20 13:20 33.244256 -117.558461 129 10975ft 354kts
01-Jan-20 13:21 33.183891 -117.482613 129 10955ft 278kts
01-Jan-20 13:22 33.130923 -117.416002 129 10969ft 275kts
01-Jan-20 13:23 33.065407 -117.385252 180 10858ft 236kts
01-Jan-20 13:24 32.999698 -117.385240 182 8920ft 236kts
01-Jan-20 13:25 32.925517 -117.367959 151 7109ft 324kts
01-Jan-20 13:26 32.857263 -117.322291 160 6953ft 245kts
01-Jan-20 13:27 32.819950 -117.267716 101 6999ft 228kts
01-Jan-20 13:28 32.803435 -117.185864 101 6991ft 271kts
01-Jan-20 13:29 32.786687 -117.100838 101 7033ft 212kts
01-Jan-20 13:30 32.774394 -117.040810 101 6402ft 195kts
01-Jan-20 13:31 32.762239 -116.975778 101 5461ft 205kts
01-Jan-20 13:33 32.751288 -116.910866 102 4976ft 187kts
01-Jan-20 13:34 32.741125 -116.850440 100 5002ft 195kts
01-Jan-20 13:35 32.730147 -116.785278 102 5004ft 203kts
01-Jan-20 13:36 32.694405 -116.781958 253 5013ft 183kts
01-Jan-20 13:37 32.677468 -116.839847 260 4969ft 178kts
01-Jan-20 13:38 32.670537 -116.892582 264 4918ft 149kts
01-Jan-20 13:39 32.674924 -116.942657 279 3750ft 142kts
01-Jan-20 13:40 32.683036 -116.980463 282 3447ft 112kts
01-Jan-20 13:41 32.692189 -117.019586 286 2861ft 131kts
01-Jan-20 13:42 32.703738 -117.064354 287 2319ft 146kts
01-Jan-20 13:43 32.713074 -117.100662 284 1750ft 139kts
01-Jan-20 13:44 32.721273 -117.138429 280 714ft 120kts
01-Jan-20 13:45 32.730310 -117.176096 281 155ft 113kts
01-Jan-20 13:46 32.732472 -117.188660 234 16ft 0kts

Navigation Log

Ident Type
Flight plan parsing failed, navigation log unavailable